Terminal Aerodrome Forecast
Issued by NWS

Home | Current Version | Previous Version | Graphics & Text | Print | Product List | Glossary On
Versions: 1 2 3 4 5 6 7 8 9 10 11 12 13 14 15 16 17
000
FTUS43 KMPX 042320
TAFRWF
TAF
KRWF 042320Z 0500/0524 17007KT 6SM HZ SKC
      TEMPO 0500/0501 5SM HZ
     FM051500 18014G21KT P6SM FEW250=

USA.gov is the U.S. government's official web portal to all federal, state and local government web resources and services.